Terminal Aerodrome Forecast
Issued by NWS

Home | Current Version | Previous Version | Text Only | Print | Product List | Glossary On
Versions: 1 2 3 4 5 6 7 8 9 10 11 12 13 14 15 16 17 18 19 20
000
FTUS43 KLSX 241000 AAA
TAFUIN
TAF AMD
KUIN 241002Z 2410/2506 30015G25KT 3SM -SN OVC010
      TEMPO 2410/2411 1 1/2SM -SN BR
     FM241200 28015G25KT P6SM OVC015
     FM241800 27020G30KT 5SM -SHSN OVC020
     FM242200 27015G25KT P6SM SCT025 BKN040
     FM250300 27012KT P6SM OVC050=

USA.gov is the U.S. government's official web portal to all federal, state and local government web resources and services.